Amelia, Ohio
Current Conditions -  °F | °C
As of 11:15 AM on Saturday 25 Oct 2014 (Local Time) from KLUK Reporting Station
Overcast Overcast  
Wind Chill: 13°   Ceiling: 3000
Heat Index: 13°   Visibility: 10mi
Dew Point: 11°   Wind: 5mph
Humidity: 84%   Direction: 220°SW
Pressure: 30.01"   Gusts: NA
Location:  39.03°N, 84.22°W
Report Text: KLUK 251515Z 22004KT 10SM OVC030 13/11 A3001 RMK AO2 T01330106
Loading
Personal Weather Stations






























Interactive Weather Map
Tropical Storm Tracking
New forecast layout! Learn more

10-Day Weather Forecast

Advertisements
Track Severe Weather on mobile